Terminal Aerodrome Forecast
Issued by NWS Charleston, WV

Current Version | Previous Version | Graphics & Text | Print | Product List | Glossary On
Versions: 1 2 3 4 5 6 7 8 9 10 11 12 13 14 15 16 17 18 19 20 21 22
000
FTUS41 KRLX 232328
TAFPKB
TAF
KPKB 232328Z 2400/2424 07005KT P6SM SKC
     FM240300 00000KT 5SM BR SCT001
      TEMPO 2404/2405 2SM BR
     FM240500 00000KT 1/4SM FG VV001
     FM241300 00000KT 1SM BR BKN002
     FM241400 07004KT P6SM SKC=

USA.gov is the U.S. government's official web portal to all federal, state and local government web resources and services.